ENKB

Kristiansund , Kvernberget Airport

Kvernberget, Norway
METAR ENKB 221720Z 03015KT 9999 FEW015 BKN026 09/04 Q1026 RMK WIND 745FT 04022KT
Observed Flight Rules
May-22 @ 17:20 UTC (32 minutes ago) Marginal Visual Flight Rules
Wind Visibility Clouds
30° at 15 knots 10,000+ meters
  • Few at 1,500' AGL
  • Broken at 2,600' AGL
Temperatures Readings
Current 9°C / 48°F
Dewpoint 4°C / 39°F
Humidity 71%
Altimeter 30.3" Hg
Pressure 1026 hPa
Elevation 62
METAR ENKB 221720Z 03015KT 9999 FEW015 BKN026 09/04 Q1026 RMK WIND 745FT 04022KT
Observed Flight Rules
May-22 @ 17:20 UTC
(32 minutes ago)
MVFR
Wind Visibility
30° at 15 knots 10,000+ meters
Clouds
  • Few at 1,500' AGL
  • Broken at 2,600' AGL
Temperature Dewpoint
9°C / 48°F 4°C / 39°F
Humidity Altimeter Pressure
71% 30.3" Hg 1026 hPa